createdAt,value
2018-08-28T00:01:55.618Z,16.33
2018-08-28T00:04:30.304Z,16.23
2018-08-28T00:07:04.924Z,16.14
2018-08-28T00:09:39.589Z,16.11
2018-08-28T00:12:14.109Z,16.08
2018-08-28T00:14:48.751Z,16.05
2018-08-28T00:17:23.466Z,15.90
2018-08-28T00:19:58.095Z,15.90
2018-08-28T00:22:32.717Z,15.87
2018-08-28T00:25:07.228Z,15.77
2018-08-28T00:27:41.896Z,15.75
2018-08-28T00:30:16.423Z,15.78
2018-08-28T00:32:51.020Z,15.80
2018-08-28T00:35:25.588Z,15.78
2018-08-28T00:38:00.344Z,15.76
2018-08-28T00:40:34.876Z,15.81
2018-08-28T00:43:09.425Z,15.84
2018-08-28T00:45:44.045Z,15.89
2018-08-28T00:48:18.592Z,15.79
2018-08-28T00:50:53.262Z,15.74
2018-08-28T00:53:27.850Z,15.79
2018-08-28T00:56:02.524Z,15.81
2018-08-28T00:58:37.518Z,15.88
2018-08-28T01:01:12.116Z,15.93
2018-08-28T01:03:46.661Z,15.91
2018-08-28T01:06:21.244Z,15.93
2018-08-28T01:08:56.101Z,15.96
2018-08-28T01:11:30.618Z,16.00
2018-08-28T01:14:05.188Z,16.02
2018-08-28T01:16:39.841Z,15.98
2018-08-28T01:19:14.375Z,16.01
2018-08-28T01:21:49.019Z,15.97
2018-08-28T01:27:23.048Z,15.90
2018-08-28T01:29:57.564Z,15.88
2018-08-28T01:32:32.159Z,15.95
2018-08-28T01:35:06.896Z,15.90
2018-08-28T01:37:41.936Z,15.88
2018-08-28T01:40:16.375Z,15.92
2018-08-28T01:42:51.270Z,15.86
2018-08-28T01:45:26.041Z,15.78
2018-08-28T01:48:00.703Z,15.82
2018-08-28T01:50:35.318Z,15.79
2018-08-28T01:53:10.021Z,15.75
2018-08-28T01:55:44.972Z,15.72
2018-08-28T01:58:19.540Z,15.69
2018-08-28T02:00:54.154Z,15.70
2018-08-28T02:03:28.789Z,15.67
2018-08-28T02:06:03.413Z,15.66
2018-08-28T02:08:37.932Z,15.69
2018-08-28T02:11:12.469Z,15.67
2018-08-28T02:14:06.229Z,15.58
2018-08-28T02:16:40.889Z,15.58
2018-08-28T02:19:15.599Z,15.56
2018-08-28T02:21:50.253Z,15.50
2018-08-28T02:24:24.720Z,15.48
2018-08-28T02:26:59.240Z,15.42
2018-08-28T02:29:33.800Z,15.44
2018-08-28T02:32:08.485Z,15.40
2018-08-28T02:34:43.210Z,15.43
2018-08-28T02:37:17.815Z,15.39
2018-08-28T02:39:52.260Z,15.38
2018-08-28T02:42:27.013Z,15.38
2018-08-28T02:45:01.629Z,15.33
2018-08-28T02:47:36.121Z,15.27
2018-08-28T02:50:10.786Z,15.25
2018-08-28T02:52:45.433Z,15.24
2018-08-28T02:55:20.216Z,15.23
2018-08-28T02:57:55.072Z,15.21
2018-08-28T03:00:29.657Z,15.20
2018-08-28T03:03:04.214Z,15.09
2018-08-28T03:05:38.881Z,15.08
2018-08-28T03:08:13.518Z,14.99
2018-08-28T03:10:48.081Z,14.89
2018-08-28T03:13:22.678Z,14.83
2018-08-28T03:15:57.205Z,14.75
2018-08-28T03:18:31.865Z,14.72
2018-08-28T03:21:06.389Z,14.67
2018-08-28T03:23:41.350Z,14.64
2018-08-28T03:26:15.913Z,14.63
2018-08-28T03:28:50.436Z,14.56
2018-08-28T03:31:25.105Z,14.54
2018-08-28T03:34:00.188Z,14.55
2018-08-28T03:36:34.660Z,14.55
2018-08-28T03:39:09.057Z,14.52
2018-08-28T03:41:43.709Z,14.50
2018-08-28T03:44:18.494Z,14.50
2018-08-28T03:46:53.829Z,14.44
2018-08-28T03:49:28.329Z,14.38
2018-08-28T03:52:03.049Z,14.39
2018-08-28T03:54:37.548Z,14.36
2018-08-28T03:57:12.044Z,14.37
2018-08-28T03:59:47.145Z,14.41
2018-08-28T04:02:21.794Z,14.40
2018-08-28T04:04:56.374Z,14.37
2018-08-28T04:07:31.009Z,14.33
2018-08-28T04:10:05.893Z,14.35
2018-08-28T04:12:40.638Z,14.34
2018-08-28T04:15:15.427Z,14.27
2018-08-28T04:17:51.066Z,14.27
2018-08-28T04:20:25.705Z,14.18
2018-08-28T04:23:00.542Z,14.19
2018-08-28T04:25:35.270Z,14.16
2018-08-28T04:28:10.239Z,14.23
2018-08-28T04:30:44.929Z,14.23
2018-08-28T04:33:19.432Z,14.22
2018-08-28T04:35:53.865Z,14.21
2018-08-28T04:38:28.429Z,14.23
2018-08-28T04:41:03.135Z,14.19
2018-08-28T04:43:37.810Z,14.16
2018-08-28T04:46:12.416Z,14.14
2018-08-28T04:48:47.021Z,14.14
2018-08-28T04:51:21.388Z,14.15
2018-08-28T04:53:55.932Z,14.19
2018-08-28T04:56:30.793Z,14.21
2018-08-28T04:59:05.334Z,14.20
2018-08-28T05:01:39.909Z,14.29
2018-08-28T05:04:14.437Z,14.30
2018-08-28T05:06:48.977Z,14.33
2018-08-28T05:09:23.549Z,14.40
2018-08-28T05:11:58.457Z,14.46
2018-08-28T05:14:33.086Z,14.57
2018-08-28T05:17:07.523Z,14.64
2018-08-28T05:19:41.982Z,14.76
2018-08-28T05:22:16.642Z,14.75
2018-08-28T05:24:51.708Z,14.76
2018-08-28T05:27:26.502Z,14.87
2018-08-28T05:30:01.057Z,15.00
2018-08-28T05:32:35.508Z,15.03
2018-08-28T05:35:10.230Z,15.08
2018-08-28T05:37:44.849Z,15.13
2018-08-28T05:40:19.334Z,15.17
2018-08-28T05:42:53.957Z,15.22
2018-08-28T05:45:28.625Z,15.27
2018-08-28T05:48:03.097Z,16.00
2018-08-28T05:50:37.707Z,17.70
2018-08-28T05:53:12.341Z,19.23
2018-08-28T05:55:47.012Z,20.16
2018-08-28T05:58:21.597Z,21.27
2018-08-28T06:00:56.309Z,21.77
2018-08-28T06:03:30.970Z,21.76
2018-08-28T06:06:05.581Z,21.97
2018-08-28T06:08:40.301Z,22.22
2018-08-28T06:11:14.832Z,22.55
2018-08-28T06:13:49.419Z,22.40
2018-08-28T06:16:24.149Z,23.30
2018-08-28T06:18:58.869Z,23.46
2018-08-28T06:21:33.509Z,23.48
2018-08-28T06:24:07.995Z,23.04
2018-08-28T06:26:42.753Z,23.78
2018-08-28T06:29:17.671Z,25.05
2018-08-28T06:31:52.342Z,25.16
2018-08-28T06:34:26.953Z,25.87
2018-08-28T06:37:01.585Z,27.11
2018-08-28T06:39:36.226Z,27.27
2018-08-28T06:42:10.742Z,27.66
2018-08-28T06:44:45.463Z,29.16
2018-08-28T06:47:20.104Z,26.80
2018-08-28T06:49:54.753Z,28.35
2018-08-28T06:52:29.101Z,28.63
2018-08-28T06:55:03.492Z,29.53
2018-08-28T06:57:38.076Z,28.00
2018-08-28T07:00:12.618Z,28.89
2018-08-28T07:02:47.267Z,28.69
2018-08-28T07:05:21.816Z,28.17
2018-08-28T07:07:56.325Z,29.74
2018-08-28T07:10:30.949Z,30.78
2018-08-28T07:13:05.514Z,32.73
2018-08-28T07:15:40.161Z,29.54
2018-08-28T07:18:14.829Z,26.07
2018-08-28T07:20:49.423Z,30.34
2018-08-28T07:23:24.149Z,31.85
2018-08-28T07:26:01.558Z,31.53
2018-08-28T07:28:36.116Z,30.09
2018-08-28T07:31:10.740Z,28.10
2018-08-28T07:33:45.385Z,28.50
2018-08-28T07:36:20.090Z,30.78
2018-08-28T07:38:54.672Z,32.96
2018-08-28T07:41:29.129Z,32.10
2018-08-28T07:44:03.840Z,31.27
2018-08-28T07:46:38.525Z,29.74
2018-08-28T07:49:13.141Z,31.12
2018-08-28T07:51:47.717Z,28.31
2018-08-28T07:54:22.377Z,29.20
2018-08-28T07:56:57.094Z,26.96
2018-08-28T07:59:32.064Z,28.41
2018-08-28T08:02:06.961Z,27.40
2018-08-28T08:04:41.528Z,23.77
2018-08-28T08:07:16.098Z,24.10
2018-08-28T08:09:50.637Z,24.25
2018-08-28T08:12:25.109Z,24.43
2018-08-28T08:14:59.641Z,24.25
2018-08-28T08:17:34.435Z,22.27
2018-08-28T08:20:08.905Z,22.39
2018-08-28T08:22:43.641Z,22.86
2018-08-28T08:25:18.342Z,22.60
2018-08-28T08:27:53.023Z,23.67
2018-08-28T08:30:27.526Z,23.44
2018-08-28T08:33:02.695Z,23.13
2018-08-28T08:35:37.265Z,23.28
2018-08-28T08:38:11.901Z,23.30
2018-08-28T08:40:46.494Z,23.50
2018-08-28T08:43:21.122Z,23.61
2018-08-28T08:45:55.815Z,24.45
2018-08-28T08:48:30.813Z,24.08
2018-08-28T08:51:05.521Z,24.50
2018-08-28T08:53:40.035Z,22.90
2018-08-28T08:56:14.729Z,22.55
2018-08-28T08:58:49.421Z,23.72
2018-08-28T09:01:24.032Z,24.13
2018-08-28T09:03:58.832Z,24.34
2018-08-28T09:06:33.482Z,24.06
2018-08-28T09:09:08.345Z,22.28
2018-08-28T09:11:43.081Z,21.97
2018-08-28T09:14:19.548Z,23.14
2018-08-28T09:16:54.096Z,24.50
2018-08-28T09:19:28.897Z,24.59
2018-08-28T09:22:03.721Z,23.89
2018-08-28T09:24:38.299Z,22.92
2018-08-28T09:27:12.920Z,23.32
2018-08-28T09:29:47.379Z,24.13
2018-08-28T09:32:21.877Z,26.07
2018-08-28T09:34:56.405Z,27.07
2018-08-28T09:37:31.373Z,27.32
2018-08-28T09:40:27.981Z,26.83
2018-08-28T09:46:02.516Z,24.20
2018-08-28T09:48:37.197Z,23.51
2018-08-28T09:51:11.741Z,23.28
2018-08-28T09:53:54.249Z,24.19
2018-08-28T09:56:28.826Z,23.76
2018-08-28T09:59:03.599Z,23.95
2018-08-28T10:01:43.548Z,24.71
2018-08-28T10:04:18.216Z,24.67
2018-08-28T10:06:52.896Z,24.47
2018-08-28T10:09:27.650Z,25.47
2018-08-28T10:12:02.221Z,25.71
2018-08-28T10:14:36.755Z,25.92
2018-08-28T10:17:11.279Z,24.16
2018-08-28T10:19:46.062Z,24.65
2018-08-28T10:22:20.828Z,24.55
2018-08-28T10:24:55.365Z,24.81
2018-08-28T10:27:30.294Z,24.67
2018-08-28T10:30:04.813Z,24.62
2018-08-28T10:32:39.367Z,25.61
2018-08-28T10:35:13.987Z,26.74
2018-08-28T10:37:48.587Z,27.12
2018-08-28T10:40:23.322Z,27.32
2018-08-28T10:42:58.731Z,27.35
2018-08-28T10:45:33.337Z,27.47
2018-08-28T10:48:08.183Z,26.82
2018-08-28T10:50:42.849Z,25.97
2018-08-28T10:53:17.514Z,25.71
2018-08-28T10:55:52.157Z,25.17
2018-08-28T10:58:26.903Z,25.04
2018-08-28T11:01:01.418Z,25.81
2018-08-28T11:03:35.980Z,27.38
2018-08-28T11:06:10.661Z,28.09
2018-08-28T11:08:45.480Z,26.09
2018-08-28T11:11:20.049Z,26.73
2018-08-28T11:13:54.744Z,26.31
2018-08-28T11:16:29.305Z,26.83
2018-08-28T11:19:03.977Z,25.42
2018-08-28T11:21:38.477Z,25.10
2018-08-28T11:24:13.056Z,25.50
2018-08-28T11:26:47.498Z,24.97
2018-08-28T11:29:21.983Z,24.99
2018-08-28T11:31:56.610Z,24.14
2018-08-28T11:34:31.541Z,23.88
2018-08-28T11:37:18.829Z,24.07
2018-08-28T11:39:53.322Z,24.26
2018-08-28T11:42:27.928Z,24.42
2018-08-28T11:45:02.477Z,24.11
2018-08-28T11:47:37.102Z,24.25
2018-08-28T11:50:11.694Z,24.66
2018-08-28T11:52:46.401Z,24.04
2018-08-28T11:55:20.876Z,23.80
2018-08-28T11:57:55.549Z,23.82
2018-08-28T12:00:29.957Z,24.11
2018-08-28T12:03:04.609Z,24.29
2018-08-28T12:05:39.236Z,24.28
2018-08-28T12:08:13.785Z,24.62
2018-08-28T12:10:48.248Z,24.12
2018-08-28T12:13:22.858Z,24.19
2018-08-28T12:15:57.965Z,24.10
2018-08-28T12:18:32.564Z,23.42
2018-08-28T12:21:07.232Z,23.82
2018-08-28T12:23:42.114Z,23.73
2018-08-28T12:26:16.701Z,24.28
2018-08-28T12:28:51.305Z,23.73
2018-08-28T12:31:25.931Z,23.76
2018-08-28T12:34:00.712Z,23.52
2018-08-28T12:36:35.345Z,23.75
2018-08-28T12:39:10.011Z,23.90
2018-08-28T12:41:44.623Z,23.62
2018-08-28T12:44:19.235Z,23.96
2018-08-28T12:46:54.198Z,24.02
2018-08-28T12:49:28.637Z,24.20
2018-08-28T12:52:03.625Z,24.50
2018-08-28T12:54:38.060Z,24.36
2018-08-28T12:57:12.537Z,24.30
2018-08-28T12:59:47.027Z,24.15
2018-08-28T13:02:22.125Z,24.04
2018-08-28T13:04:56.825Z,23.88
2018-08-28T13:07:31.521Z,24.01
2018-08-28T13:10:06.122Z,23.78
2018-08-28T13:12:40.757Z,23.20
2018-08-28T13:15:15.338Z,23.32
2018-08-28T13:17:50.013Z,23.61
2018-08-28T13:20:24.666Z,23.42
2018-08-28T13:22:59.181Z,23.24
2018-08-28T13:25:33.939Z,23.44
2018-08-28T13:28:08.161Z,23.56
2018-08-28T13:30:42.684Z,23.40
2018-08-28T13:33:17.318Z,23.46
2018-08-28T13:35:52.257Z,23.52
2018-08-28T13:38:26.877Z,23.48
2018-08-28T13:41:01.329Z,23.34
2018-08-28T13:43:35.985Z,23.52
2018-08-28T13:46:10.462Z,23.14
2018-08-28T13:48:44.879Z,23.57
2018-08-28T13:51:19.685Z,23.73
2018-08-28T13:53:54.283Z,23.76
2018-08-28T13:56:28.683Z,23.80
2018-08-28T13:59:03.423Z,23.84
2018-08-28T14:01:38.099Z,23.97
2018-08-28T14:04:12.687Z,23.90
2018-08-28T14:06:50.093Z,23.78
2018-08-28T14:09:24.719Z,24.21
2018-08-28T14:12:04.949Z,24.16
2018-08-28T14:14:39.462Z,24.02
2018-08-28T14:17:14.149Z,24.10
2018-08-28T14:19:48.718Z,24.09
2018-08-28T14:22:23.557Z,24.21
2018-08-28T14:24:58.157Z,24.11
2018-08-28T14:27:32.723Z,24.19
2018-08-28T14:30:07.771Z,24.14
2018-08-28T14:32:42.217Z,24.27
2018-08-28T14:35:16.976Z,24.50
2018-08-28T14:37:51.485Z,24.70
2018-08-28T14:40:26.152Z,25.38
2018-08-28T14:43:00.770Z,26.30
2018-08-28T14:45:35.513Z,27.25
2018-08-28T14:48:10.257Z,27.77
2018-08-28T14:50:44.864Z,28.57
2018-08-28T14:53:19.532Z,28.08
2018-08-28T14:55:54.163Z,29.32
2018-08-28T14:58:28.860Z,28.85
2018-08-28T15:01:03.358Z,29.94
2018-08-28T15:04:02.560Z,29.64
2018-08-28T15:06:36.981Z,30.51
2018-08-28T15:09:11.461Z,30.25
2018-08-28T15:11:46.159Z,30.48
2018-08-28T15:14:20.698Z,30.31
2018-08-28T15:16:55.322Z,29.75
2018-08-28T15:19:29.926Z,29.44
2018-08-28T15:22:04.596Z,27.77
2018-08-28T15:24:39.106Z,28.74
2018-08-28T15:27:13.782Z,28.62
2018-08-28T15:29:48.326Z,28.27
2018-08-28T15:32:22.873Z,28.51
2018-08-28T15:34:58.079Z,28.73
2018-08-28T15:37:32.569Z,28.83
2018-08-28T15:40:07.069Z,28.33
2018-08-28T15:42:41.672Z,28.89
2018-08-28T15:45:16.583Z,28.91
2018-08-28T15:47:51.193Z,28.47
2018-08-28T15:50:25.810Z,28.82
2018-08-28T15:53:00.313Z,28.28
2018-08-28T15:55:35.114Z,28.61
2018-08-28T15:58:09.566Z,28.64
2018-08-28T16:00:44.173Z,28.62
2018-08-28T16:03:18.732Z,28.02
2018-08-28T16:05:53.367Z,27.78
2018-08-28T16:08:27.841Z,27.53
2018-08-28T16:11:02.324Z,26.93
2018-08-28T16:13:36.879Z,25.97
2018-08-28T16:16:11.398Z,25.81
2018-08-28T16:18:45.949Z,25.52
2018-08-28T16:21:20.645Z,25.33
2018-08-28T16:23:55.241Z,25.10
2018-08-28T16:26:29.825Z,24.84
2018-08-28T16:29:04.299Z,24.49
2018-08-28T16:31:40.632Z,24.41
2018-08-28T16:34:38.366Z,24.36
2018-08-28T16:37:13.048Z,24.14
2018-08-28T16:39:47.562Z,24.08
2018-08-28T16:42:22.170Z,23.91
2018-08-28T16:44:56.777Z,23.91
2018-08-28T16:47:31.330Z,23.78
2018-08-28T16:50:06.078Z,23.84
2018-08-28T16:52:40.790Z,23.76
2018-08-28T16:55:15.406Z,23.74
2018-08-28T16:57:50.126Z,23.68
2018-08-28T17:00:24.773Z,23.58
2018-08-28T17:02:59.479Z,23.56
2018-08-28T17:05:36.216Z,23.43
2018-08-28T17:08:21.296Z,23.47
2018-08-28T17:10:55.977Z,23.48
2018-08-28T17:13:30.589Z,23.46
2018-08-28T17:16:05.394Z,23.41
2018-08-28T17:18:39.908Z,23.19
2018-08-28T17:21:14.571Z,23.15
2018-08-28T17:23:49.111Z,23.22
2018-08-28T17:26:23.672Z,23.05
2018-08-28T17:28:58.611Z,22.98
2018-08-28T17:31:33.250Z,22.91
2018-08-28T17:34:07.810Z,22.77
2018-08-28T17:36:42.417Z,22.46
2018-08-28T17:39:16.951Z,22.53
2018-08-28T17:41:51.585Z,22.54
2018-08-28T17:47:25.518Z,22.51
2018-08-28T17:50:00.202Z,22.49
2018-08-28T17:52:34.828Z,22.23
2018-08-28T17:55:09.416Z,22.00
2018-08-28T17:57:44.024Z,22.04
2018-08-28T18:00:18.541Z,22.00
2018-08-28T18:02:53.096Z,21.86
2018-08-28T18:05:27.786Z,21.65
2018-08-28T18:08:02.555Z,21.58
2018-08-28T18:10:37.258Z,21.45
2018-08-28T18:13:18.549Z,21.24
2018-08-28T18:15:53.146Z,21.11
2018-08-28T18:18:27.660Z,20.91
2018-08-28T18:21:02.272Z,20.80
2018-08-28T18:23:36.822Z,20.73
2018-08-28T18:26:11.569Z,20.67
2018-08-28T18:28:46.356Z,20.61
2018-08-28T18:31:21.067Z,20.61
2018-08-28T18:33:56.025Z,20.49
2018-08-28T18:36:30.815Z,20.38
2018-08-28T18:39:06.719Z,20.27
2018-08-28T18:41:41.178Z,20.30
2018-08-28T18:44:15.813Z,20.23
2018-08-28T18:46:50.475Z,20.20
2018-08-28T18:49:25.120Z,20.18
2018-08-28T18:52:00.067Z,20.17
2018-08-28T18:54:34.731Z,20.11
2018-08-28T18:57:09.425Z,20.00
2018-08-28T18:59:43.980Z,19.93
2018-08-28T19:02:18.786Z,19.87
2018-08-28T19:04:53.461Z,19.81
2018-08-28T19:07:28.156Z,19.91
2018-08-28T19:10:14.892Z,19.96
2018-08-28T19:12:49.482Z,20.05
2018-08-28T19:15:24.070Z,20.13
2018-08-28T19:17:58.683Z,20.15
2018-08-28T19:20:33.602Z,20.11
2018-08-28T19:23:08.721Z,20.14
2018-08-28T19:25:43.356Z,20.12
2018-08-28T19:28:17.857Z,20.11
2018-08-28T19:30:52.636Z,20.00
2018-08-28T19:33:27.149Z,19.88
2018-08-28T19:36:01.899Z,19.81
2018-08-28T19:38:36.675Z,19.70
2018-08-28T19:41:11.285Z,19.54
2018-08-28T19:43:53.744Z,19.47
2018-08-28T19:46:28.605Z,19.59
2018-08-28T19:49:03.161Z,19.61
2018-08-28T19:51:37.938Z,19.64
2018-08-28T19:54:12.532Z,19.47
2018-08-28T19:56:47.279Z,19.49
2018-08-28T19:59:21.862Z,19.65
2018-08-28T20:01:56.603Z,19.62
2018-08-28T20:04:31.536Z,19.70
2018-08-28T20:07:06.045Z,19.83
2018-08-28T20:09:40.546Z,19.91
2018-08-28T20:12:15.605Z,19.72
2018-08-28T20:14:50.183Z,19.70
2018-08-28T20:17:24.905Z,19.65
2018-08-28T20:19:59.740Z,19.64
2018-08-28T20:22:34.352Z,19.67
2018-08-28T20:25:08.994Z,19.62
2018-08-28T20:27:43.539Z,19.59
2018-08-28T20:30:18.206Z,19.56
2018-08-28T20:32:52.757Z,19.57
2018-08-28T20:35:27.283Z,19.61
2018-08-28T20:38:01.901Z,19.52
2018-08-28T20:40:36.434Z,19.49
2018-08-28T20:43:11.029Z,19.33
2018-08-28T20:45:45.850Z,19.29
2018-08-28T20:48:33.347Z,18.83
2018-08-28T20:51:07.997Z,19.08
2018-08-28T20:53:42.658Z,19.07
2018-08-28T20:56:17.255Z,19.05
2018-08-28T20:58:51.861Z,19.03
2018-08-28T21:01:26.427Z,18.98
2018-08-28T21:04:00.909Z,18.97
2018-08-28T21:06:35.609Z,18.95
2018-08-28T21:09:10.301Z,18.94
2018-08-28T21:11:44.857Z,18.96
2018-08-28T21:14:19.504Z,18.93
2018-08-28T21:16:54.073Z,18.90
2018-08-28T21:19:28.558Z,18.75
2018-08-28T21:22:03.183Z,18.76
2018-08-28T21:24:37.803Z,18.71
2018-08-28T21:27:12.553Z,18.63
2018-08-28T21:29:47.437Z,18.55
2018-08-28T21:32:22.191Z,18.47
2018-08-28T21:34:56.745Z,18.50
2018-08-28T21:37:31.873Z,18.50
2018-08-28T21:40:06.756Z,18.50
2018-08-28T21:42:41.393Z,18.53
2018-08-28T21:45:16.192Z,18.42
2018-08-28T21:47:50.860Z,18.47
2018-08-28T21:50:25.667Z,18.46
2018-08-28T21:53:00.353Z,18.44
2018-08-28T21:55:34.890Z,18.38
2018-08-28T21:58:09.541Z,18.37
2018-08-28T22:00:44.146Z,18.41
2018-08-28T22:03:18.764Z,18.40
2018-08-28T22:05:53.397Z,18.42
2018-08-28T22:08:27.905Z,18.38
2018-08-28T22:11:02.331Z,18.31
2018-08-28T22:13:37.081Z,18.31
2018-08-28T22:16:11.657Z,18.25
2018-08-28T22:18:46.204Z,18.21
2018-08-28T22:21:20.713Z,18.16
2018-08-28T22:23:55.413Z,18.14
2018-08-28T22:26:30.191Z,18.09
2018-08-28T22:29:04.876Z,18.11
2018-08-28T22:31:39.522Z,18.12
2018-08-28T22:34:14.046Z,18.19
2018-08-28T22:36:48.484Z,18.12
2018-08-28T22:39:23.388Z,18.04
2018-08-28T22:41:57.961Z,18.06
2018-08-28T22:44:32.502Z,18.06
2018-08-28T22:47:06.977Z,18.00
2018-08-28T22:49:41.810Z,18.09
2018-08-28T22:52:16.644Z,18.00
2018-08-28T22:54:51.135Z,17.99
2018-08-28T22:57:25.742Z,17.98
2018-08-28T23:00:00.215Z,17.99
2018-08-28T23:02:34.768Z,17.97
2018-08-28T23:05:09.405Z,17.94
2018-08-28T23:07:44.051Z,17.99
2018-08-28T23:10:18.673Z,17.99
2018-08-28T23:12:53.260Z,18.02
2018-08-28T23:15:27.745Z,18.02
2018-08-28T23:18:02.357Z,17.98
2018-08-28T23:20:36.785Z,18.00
2018-08-28T23:23:11.213Z,17.97
2018-08-28T23:25:46.264Z,17.97
2018-08-28T23:28:20.743Z,17.98
2018-08-28T23:30:55.755Z,17.97
2018-08-28T23:33:30.355Z,17.98
2018-08-28T23:36:04.850Z,17.99
2018-08-28T23:38:39.388Z,17.94
2018-08-28T23:41:14.429Z,17.81
2018-08-28T23:43:49.084Z,17.81
2018-08-28T23:46:23.657Z,17.74
2018-08-28T23:48:58.276Z,17.87
2018-08-28T23:51:33.025Z,17.93
2018-08-28T23:54:07.477Z,17.81
2018-08-28T23:56:42.220Z,17.85
2018-08-28T23:59:16.704Z,17.84
